Time;durP1;ratioP1;P1;durP2;ratioP2;P2;SDS_P1;SDS_P2;PMS_P1;PMS_P2;Temp;Humidity;BMP_temperature;BMP_pressure;BME280_temperature;BME280_humidity;BME280_pressure;Samples;Min_cycle;Max_cycle;Signal;HPM_P1;HPM_P2
2023/02/06 00:00:52;;;;;;;1.67;1.45;;;19.20;29.10;;;;;;5036740;28;20576;-70
2023/02/06 00:03:19;;;;;;;1.23;1.10;;;19.20;29.10;;;;;;5037801;28;20049;-70
2023/02/06 00:05:57;;;;;;;2.17;1.65;;;19.20;29.10;;;;;;5036759;28;20084;-70
2023/02/06 00:08:26;;;;;;;1.80;1.45;;;19.20;29.10;;;;;;5036989;28;20045;-71
2023/02/06 00:10:53;;;;;;;1.30;1.20;;;19.20;29.10;;;;;;5037135;28;20065;-70
2023/02/06 00:13:20;;;;;;;1.25;1.15;;;19.20;29.10;;;;;;5036682;28;20081;-70
2023/02/06 00:15:48;;;;;;;2.08;1.25;;;19.20;29.10;;;;;;5025597;28;20446;-71
2023/02/06 00:18:15;;;;;;;1.90;1.30;;;19.20;29.10;;;;;;4999549;28;20049;-70
2023/02/06 00:20:42;;;;;;;1.83;1.50;;;19.20;29.10;;;;;;5017187;28;20088;-70
2023/02/06 00:23:09;;;;;;;1.30;1.20;;;19.20;29.10;;;;;;5016643;28;20141;-71
2023/02/06 00:25:36;;;;;;;2.22;1.75;;;19.20;29.50;;;;;;5017152;28;20113;-71
2023/02/06 00:28:04;;;;;;;1.50;1.40;;;19.20;29.10;;;;;;5007403;28;20041;-68
2023/02/06 00:30:31;;;;;;;1.65;1.38;;;19.20;29.10;;;;;;5036521;28;20045;-70
2023/02/06 00:32:58;;;;;;;1.48;1.38;;;19.20;29.10;;;;;;5036955;28;20077;-70
2023/02/06 00:35:25;;;;;;;1.45;1.35;;;19.10;29.10;;;;;;5036527;28;20493;-70
2023/02/06 00:37:53;;;;;;;1.63;1.52;;;19.10;29.00;;;;;;5036909;28;20558;-70
2023/02/06 00:40:20;;;;;;;2.00;1.50;;;19.10;29.00;;;;;;5035801;28;20108;-70
2023/02/06 00:42:47;;;;;;;2.03;1.83;;;19.10;29.00;;;;;;5036784;28;20104;-70
2023/02/06 00:45:14;;;;;;;1.63;1.50;;;19.10;29.10;;;;;;5036792;28;20048;-70
2023/02/06 00:47:41;;;;;;;2.10;1.90;;;19.10;29.00;;;;;;5036625;28;20067;-70
2023/02/06 00:50:08;;;;;;;1.55;1.45;;;19.10;29.50;;;;;;5036245;28;20052;-70
2023/02/06 00:52:35;;;;;;;2.03;1.42;;;19.10;29.10;;;;;;5018996;28;20072;-71
2023/02/06 00:55:03;;;;;;;1.60;1.50;;;19.10;29.10;;;;;;5036954;28;20045;-70
2023/02/06 00:57:30;;;;;;;1.95;1.80;;;19.10;29.10;;;;;;5036730;28;20493;-70
2023/02/06 00:59:57;;;;;;;2.10;1.90;;;19.10;29.50;;;;;;5019187;28;20404;-70
2023/02/06 01:02:24;;;;;;;1.83;1.35;;;19.10;29.10;;;;;;5036670;28;20046;-70
2023/02/06 01:04:51;;;;;;;2.00;1.50;;;19.10;29.10;;;;;;5036389;28;20049;-70
2023/02/06 01:07:18;;;;;;;2.22;1.67;;;19.10;29.10;;;;;;5035695;28;20048;-70
2023/02/06 01:09:45;;;;;;;1.52;1.40;;;19.10;29.10;;;;;;5036172;28;20589;-70
2023/02/06 01:12:12;;;;;;;1.60;1.50;;;19.10;29.10;;;;;;5036547;28;20413;-71
2023/02/06 01:14:39;;;;;;;1.60;1.50;;;19.10;29.10;;;;;;5018802;28;20473;-70
2023/02/06 01:17:07;;;;;;;2.08;1.95;;;19.10;29.10;;;;;;5036292;28;20139;-70
2023/02/06 01:19:35;;;;;;;1.73;1.63;;;19.00;29.10;;;;;;5036203;28;20049;-70
2023/02/06 01:22:02;;;;;;;1.65;1.50;;;19.00;29.10;;;;;;5018215;28;20050;-70
2023/02/06 01:24:29;;;;;;;2.35;1.80;;;19.00;29.10;;;;;;5035916;28;20132;-70
2023/02/06 01:26:57;;;;;;;2.03;1.52;;;19.00;29.10;;;;;;5035668;28;20053;-70
2023/02/06 01:29:24;;;;;;;2.13;1.67;;;19.00;29.10;;;;;;5036372;28;20129;-70
2023/02/06 01:31:51;;;;;;;2.20;2.00;;;19.00;29.10;;;;;;5035637;28;20051;-70
2023/02/06 01:34:18;;;;;;;1.35;1.25;;;19.00;29.10;;;;;;5036070;28;20156;-70
2023/02/06 01:36:45;;;;;;;1.70;1.60;;;19.00;29.10;;;;;;5035980;28;20056;-70
2023/02/06 01:39:12;;;;;;;1.92;1.60;;;19.00;29.10;;;;;;5036216;28;20056;-70
2023/02/06 01:41:39;;;;;;;2.53;1.55;;;19.00;29.10;;;;;;5035988;28;20048;-70
2023/02/06 01:44:20;;;;;;;2.38;1.85;;;19.00;29.10;;;;;;5035982;28;20056;-70
2023/02/06 01:46:53;;;;;;;1.50;1.40;;;19.00;29.10;;;;;;5035755;28;20056;-70
2023/02/06 01:49:31;;;;;;;1.83;1.55;;;19.00;29.10;;;;;;5035895;28;20045;-70
2023/02/06 01:52:15;;;;;;;1.90;1.50;;;19.00;29.10;;;;;;5035912;28;20045;-71
2023/02/06 01:54:47;;;;;;;1.83;1.70;;;19.00;29.20;;;;;;5039746;28;20051;-70
2023/02/06 01:57:15;;;;;;;1.42;1.30;;;19.00;29.10;;;;;;5039676;28;20049;-71
2023/02/06 01:59:48;;;;;;;1.65;1.40;;;19.00;29.10;;;;;;5039932;28;20071;-71
2023/02/06 02:02:15;;;;;;;1.80;1.40;;;19.00;29.10;;;;;;5039680;28;20140;-70
2023/02/06 02:04:43;;;;;;;1.98;1.40;;;18.90;29.10;;;;;;5039246;28;20068;-71
2023/02/06 02:07:27;;;;;;;1.98;1.80;;;19.00;29.10;;;;;;5039197;28;20057;-70
2023/02/06 02:09:55;;;;;;;2.15;1.85;;;19.00;29.10;;;;;;5039532;28;20049;-70
2023/02/06 02:12:22;;;;;;;1.35;1.23;;;19.00;29.10;;;;;;5039344;28;20046;-70
2023/02/06 02:14:52;;;;;;;2.53;2.28;;;18.90;29.10;;;;;;5039466;28;20433;-70
2023/02/06 02:17:43;;;;;;;2.03;1.75;;;19.00;29.20;;;;;;5038886;28;20551;-70
2023/02/06 02:20:44;;;;;;;2.17;1.63;;;19.00;29.10;;;;;;5039242;28;20049;-71
2023/02/06 02:23:43;;;;;;;2.20;1.67;;;19.00;29.20;;;;;;5026971;28;20049;-70
2023/02/06 02:26:42;;;;;;;1.73;1.50;;;19.00;29.10;;;;;;5038567;28;20049;-70
2023/02/06 02:29:37;;;;;;;1.92;1.60;;;19.00;29.10;;;;;;5038761;28;20052;-70
2023/02/06 02:32:36;;;;;;;1.65;1.20;;;19.00;29.20;;;;;;5038567;28;20049;-71
2023/02/06 02:35:27;;;;;;;1.90;1.58;;;19.00;29.10;;;;;;5026458;28;20054;-70
2023/02/06 02:38:24;;;;;;;5.78;1.88;;;19.00;29.10;;;;;;5039352;28;20124;-70
2023/02/06 02:41:08;;;;;;;1.38;1.27;;;19.00;29.10;;;;;;5038849;28;20049;-70
2023/02/06 02:43:43;;;;;;;1.65;1.50;;;18.90;29.10;;;;;;5039296;28;20045;-71
2023/02/06 02:46:36;;;;;;;1.70;1.60;;;19.00;29.10;;;;;;5038290;28;20067;-70
2023/02/06 02:49:08;;;;;;;2.67;1.45;;;18.90;29.10;;;;;;5037786;28;20132;-70
2023/02/06 02:51:37;;;;;;;1.73;1.50;;;18.90;29.10;;;;;;5038647;28;20056;-71
2023/02/06 02:54:04;;;;;;;1.73;1.60;;;18.90;29.10;;;;;;5037794;28;20050;-70
2023/02/06 02:56:35;;;;;;;1.50;1.40;;;18.90;29.50;;;;;;5038941;28;20132;-70
2023/02/06 02:59:08;;;;;;;1.67;1.58;;;18.90;29.10;;;;;;5038344;28;20465;-71
2023/02/06 03:01:48;;;;;;;2.17;1.55;;;18.90;29.10;;;;;;5038705;28;20124;-71
2023/02/06 03:04:23;;;;;;;1.88;1.35;;;18.90;29.10;;;;;;5037895;28;20052;-71
2023/02/06 03:07:29;;;;;;;1.40;1.30;;;18.90;29.10;;;;;;5038490;28;20053;-71
2023/02/06 03:10:16;;;;;;;1.55;1.45;;;18.90;29.10;;;;;;5006838;28;20042;-70
2023/02/06 03:13:13;;;;;;;2.03;1.55;;;18.90;29.10;;;;;;5038494;28;20106;-71
2023/02/06 03:16:10;;;;;;;1.70;1.50;;;18.90;29.10;;;;;;5023732;28;20585;-70
2023/02/06 03:18:42;;;;;;;1.58;1.38;;;18.90;29.10;;;;;;5018295;28;20046;-71
2023/02/06 03:21:15;;;;;;;1.60;1.40;;;18.90;29.10;;;;;;5017491;28;20073;-71
2023/02/06 03:23:44;;;;;;;1.40;1.30;;;18.90;29.10;;;;;;5018073;28;20054;-71
2023/02/06 03:26:16;;;;;;;2.30;2.00;;;18.90;29.10;;;;;;5017956;28;20050;-71
2023/02/06 03:28:48;;;;;;;1.77;1.67;;;18.90;29.10;;;;;;5018189;28;20050;-71
2023/02/06 03:31:24;;;;;;;1.58;1.20;;;18.90;29.10;;;;;;5017886;28;20517;-70
2023/02/06 03:33:58;;;;;;;1.75;1.33;;;18.90;29.10;;;;;;5017848;28;20053;-70
2023/02/06 03:36:25;;;;;;;1.35;1.25;;;18.80;29.10;;;;;;5017858;28;20046;-71
2023/02/06 03:38:52;;;;;;;1.80;1.60;;;18.80;29.00;;;;;;5018036;28;20581;-71
2023/02/06 03:41:26;;;;;;;1.63;1.52;;;18.80;29.00;;;;;;5017866;28;20049;-71
2023/02/06 03:43:55;;;;;;;1.70;1.35;;;18.80;29.50;;;;;;5018226;28;20076;-71
2023/02/06 03:46:25;;;;;;;1.88;1.40;;;18.80;29.00;;;;;;5018075;28;20071;-71
2023/02/06 03:48:58;;;;;;;1.90;1.75;;;18.80;29.00;;;;;;5018165;28;20060;-71
2023/02/06 03:51:33;;;;;;;1.85;1.33;;;18.80;29.00;;;;;;5018207;28;20148;-71
2023/02/06 03:54:03;;;;;;;1.88;1.65;;;18.80;29.10;;;;;;5017601;28;20049;-71
2023/02/06 03:56:46;;;;;;;2.42;1.88;;;18.80;29.00;;;;;;5017729;28;20128;-71
2023/02/06 03:59:13;;;;;;;1.90;1.77;;;18.80;29.00;;;;;;5011779;28;20140;-71
2023/02/06 04:01:44;;;;;;;2.00;1.83;;;18.80;29.10;;;;;;5037159;28;20049;-70
2023/02/06 04:04:18;;;;;;;1.58;1.48;;;18.80;29.10;;;;;;5037360;28;20083;-71
2023/02/06 04:06:45;;;;;;;2.05;1.60;;;18.80;29.10;;;;;;5037385;28;20053;-71
2023/02/06 04:09:12;;;;;;;3.28;1.77;;;18.80;29.10;;;;;;5036569;28;20073;-70
2023/02/06 04:11:40;;;;;;;2.22;2.00;;;18.80;29.10;;;;;;5026853;28;20413;-71
2023/02/06 04:14:07;;;;;;;1.92;1.75;;;18.80;29.10;;;;;;5035186;28;20053;-70
2023/02/06 04:16:34;;;;;;;2.40;1.80;;;18.80;29.10;;;;;;5036396;28;20136;-70
2023/02/06 04:19:01;;;;;;;2.45;2.03;;;18.80;29.10;;;;;;5037497;28;20045;-70
2023/02/06 04:21:28;;;;;;;1.90;1.52;;;18.80;29.10;;;;;;5036693;28;20075;-70
2023/02/06 04:23:55;;;;;;;2.38;1.92;;;18.80;29.10;;;;;;5037171;28;20053;-70
2023/02/06 04:26:22;;;;;;;2.33;1.85;;;18.80;29.10;;;;;;5036385;28;20136;-71
2023/02/06 04:28:49;;;;;;;2.95;1.98;;;18.80;29.10;;;;;;5036756;28;20140;-70
2023/02/06 04:31:16;;;;;;;2.28;1.77;;;18.80;29.10;;;;;;5035533;28;20042;-70
2023/02/06 04:33:44;;;;;;;2.05;1.85;;;18.80;29.10;;;;;;5037079;28;20072;-71
2023/02/06 04:36:11;;;;;;;2.05;1.85;;;18.90;29.10;;;;;;5036714;28;20045;-70
2023/02/06 04:38:38;;;;;;;2.60;2.00;;;18.80;29.10;;;;;;5036679;28;20145;-71
2023/02/06 04:41:06;;;;;;;2.22;2.03;;;18.80;29.00;;;;;;5034148;28;20049;-71
2023/02/06 04:43:33;;;;;;;2.42;1.90;;;18.80;29.00;;;;;;5034839;28;20053;-70
2023/02/06 04:46:00;;;;;;;1.95;1.77;;;18.80;29.00;;;;;;5034761;28;20041;-70
2023/02/06 04:48:28;;;;;;;2.35;2.15;;;18.80;29.00;;;;;;5036380;28;20049;-71
2023/02/06 04:50:55;;;;;;;2.08;1.98;;;18.80;29.00;;;;;;5036441;28;20049;-71
2023/02/06 04:53:22;;;;;;;5.38;2.50;;;18.80;29.00;;;;;;5036815;28;20065;-70
2023/02/06 04:55:49;;;;;;;2.88;1.90;;;18.80;29.00;;;;;;5036132;28;20056;-70
2023/02/06 04:58:16;;;;;;;2.65;1.98;;;18.70;28.90;;;;;;5035531;28;20045;-71
2023/02/06 05:00:43;;;;;;;2.30;2.10;;;18.80;29.00;;;;;;5035967;28;20049;-70
2023/02/06 05:03:10;;;;;;;2.60;2.40;;;18.70;28.90;;;;;;5033265;28;20076;-70
2023/02/06 05:05:37;;;;;;;2.38;2.17;;;18.70;29.40;;;;;;5036139;28;20045;-71
2023/02/06 05:08:04;;;;;;;3.10;2.22;;;18.70;29.00;;;;;;5036094;28;20084;-70
2023/02/06 05:10:32;;;;;;;2.25;2.05;;;18.80;29.00;;;;;;5035990;28;20134;-70
2023/02/06 05:12:59;;;;;;;3.08;2.47;;;18.80;29.00;;;;;;5036221;28;20057;-71
2023/02/06 05:15:26;;;;;;;3.08;2.70;;;18.70;29.00;;;;;;5036209;28;20056;-70
2023/02/06 05:17:53;;;;;;;2.25;2.05;;;18.70;29.00;;;;;;5035670;28;20050;-70
2023/02/06 05:20:20;;;;;;;2.38;2.17;;;18.70;29.00;;;;;;5036213;28;20068;-70
2023/02/06 05:22:47;;;;;;;3.00;2.30;;;18.70;29.00;;;;;;5036437;28;20050;-71
2023/02/06 05:25:14;;;;;;;2.67;2.30;;;18.70;29.00;;;;;;5036158;28;20081;-70
2023/02/06 05:27:41;;;;;;;2.63;1.98;;;18.70;29.00;;;;;;5038663;28;20049;-70
2023/02/06 05:30:09;;;;;;;3.95;2.75;;;18.70;29.00;;;;;;5039544;28;20060;-70
2023/02/06 05:32:36;;;;;;;2.40;2.20;;;18.70;29.00;;;;;;5039169;28;20521;-71
2023/02/06 05:35:04;;;;;;;3.88;2.83;;;18.70;29.00;;;;;;5032686;28;20046;-70
2023/02/06 05:37:31;;;;;;;3.72;2.95;;;18.70;29.00;;;;;;5014766;28;20152;-70
2023/02/06 05:39:58;;;;;;;4.15;3.35;;;18.70;28.80;;;;;;5032851;28;20057;-70
2023/02/06 05:42:26;;;;;;;5.10;3.75;;;18.60;28.70;;;;;;5038766;28;20129;-70
2023/02/06 05:44:54;;;;;;;6.10;4.90;;;18.60;28.60;;;;;;5039025;28;20049;-70
2023/02/06 05:47:22;;;;;;;4.18;3.65;;;18.60;28.70;;;;;;5036214;28;20081;-70
2023/02/06 05:49:49;;;;;;;5.30;3.88;;;18.60;28.70;;;;;;5038097;28;20128;-70
2023/02/06 05:52:16;;;;;;;6.68;4.40;;;18.60;28.70;;;;;;5016434;28;20520;-70
2023/02/06 05:54:44;;;;;;;5.47;4.00;;;18.50;28.60;;;;;;5038177;28;20140;-70
2023/02/06 05:57:11;;;;;;;5.88;3.67;;;18.60;28.70;;;;;;5037466;28;20124;-71
2023/02/06 05:59:38;;;;;;;5.82;4.40;;;18.50;28.70;;;;;;5035238;28;20105;-70
2023/02/06 06:02:05;;;;;;;5.60;3.83;;;18.50;28.70;;;;;;5036344;28;20120;-70
2023/02/06 06:04:32;;;;;;;7.05;3.88;;;18.50;28.70;;;;;;5038648;28;20390;-71
2023/02/06 06:06:59;;;;;;;4.75;3.95;;;18.50;28.70;;;;;;5034777;28;20085;-64
2023/02/06 06:09:26;;;;;;;5.57;4.25;;;18.50;28.70;;;;;;5033962;28;20054;-70
2023/02/06 06:11:53;;;;;;;5.93;4.00;;;18.60;28.70;;;;;;5029014;28;20047;-70
2023/02/06 06:14:21;;;;;;;6.07;4.25;;;18.60;28.70;;;;;;5009075;28;20088;-70
2023/02/06 06:16:48;;;;;;;5.65;4.38;;;18.60;28.60;;;;;;5031965;28;20045;-64
2023/02/06 06:19:15;;;;;;;8.00;5.00;;;18.60;28.60;;;;;;5032764;28;20054;-64
2023/02/06 06:21:42;;;;;;;5.28;4.32;;;18.70;28.70;;;;;;5037402;28;20048;-65
2023/02/06 06:28:00;;;;;;;5.53;4.65;;;18.70;28.80;;;;;;5010121;28;20091;-67
2023/02/06 06:30:27;;;;;;;6.78;4.70;;;18.70;28.90;;;;;;5009844;28;20070;-63
2023/02/06 06:32:55;;;;;;;11.30;4.63;;;18.80;29.00;;;;;;5012429;28;20120;-69
2023/02/06 06:35:22;;;;;;;7.32;4.97;;;18.80;28.90;;;;;;5009265;28;20389;-61
2023/02/06 06:37:54;;;;;;;7.50;4.78;;;18.90;28.90;;;;;;5011121;28;20050;-66
2023/02/06 06:40:24;;;;;;;7.18;4.80;;;18.90;29.00;;;;;;5011082;28;20072;-69
2023/02/06 06:42:51;;;;;;;9.65;6.10;;;19.00;29.00;;;;;;5006147;28;20038;-68
2023/02/06 06:45:18;;;;;;;7.40;5.38;;;19.00;29.00;;;;;;5011588;28;20176;-65
2023/02/06 06:47:45;;;;;;;9.40;6.20;;;19.00;28.90;;;;;;5011386;28;20091;-65
2023/02/06 06:53:53;;;;;;;9.23;6.43;;;19.20;28.90;;;;;;5014776;28;20096;-63
2023/02/06 06:56:21;;;;;;;8.52;6.03;;;19.20;28.80;;;;;;5014435;28;20049;-64
2023/02/06 06:58:49;;;;;;;20.00;6.50;;;19.20;28.70;;;;;;5006202;28;20569;-70
2023/02/06 07:01:17;;;;;;;13.13;7.63;;;19.20;28.80;;;;;;5002311;28;20045;-64
2023/02/06 07:03:46;;;;;;;15.23;8.80;;;19.30;28.80;;;;;;5015777;28;20434;-69
2023/02/06 07:10:05;;;;;;;13.60;8.02;;;19.40;29.20;;;;;;5017369;28;20036;-68
2023/02/06 07:12:33;;;;;;;10.60;7.32;;;19.50;29.70;;;;;;5011401;28;20057;-62
2023/02/06 07:15:03;;;;;;;12.73;7.88;;;19.50;29.90;;;;;;5000613;28;20138;-64
2023/02/06 07:17:31;;;;;;;12.75;7.40;;;19.60;30.00;;;;;;4998465;28;20057;-63
2023/02/06 07:19:58;;;;;;;12.15;7.90;;;19.60;29.80;;;;;;4998328;28;20133;-62
2023/02/06 07:22:25;;;;;;;9.32;7.28;;;19.60;29.80;;;;;;4998841;28;20121;-64
2023/02/06 07:24:52;;;;;;;12.15;7.68;;;19.70;29.70;;;;;;4998898;28;20451;-69
2023/02/06 07:27:20;;;;;;;11.55;7.57;;;19.70;29.40;;;;;;4980945;28;20046;-63
2023/02/06 07:29:53;;;;;;;12.45;7.65;;;19.80;29.30;;;;;;4997327;28;20057;-62
2023/02/06 07:32:20;;;;;;;11.90;7.65;;;19.90;29.30;;;;;;4997122;28;20057;-63
2023/02/06 07:34:47;;;;;;;10.35;7.30;;;19.90;29.20;;;;;;4997397;28;20414;-65
2023/02/06 07:37:14;;;;;;;16.15;7.93;;;19.90;29.10;;;;;;5014599;28;20128;-66
2023/02/06 07:39:41;;;;;;;14.95;7.95;;;19.90;29.10;;;;;;5017235;28;20133;-67
2023/02/06 07:42:08;;;;;;;15.02;8.05;;;20.00;29.20;;;;;;5015997;28;20125;-63
2023/02/06 07:45:12;;;;;;;13.05;7.85;;;20.10;29.50;;;;;;5017038;28;20052;-63
2023/02/06 07:48:09;;;;;;;12.07;7.30;;;20.10;29.70;;;;;;4998632;28;20065;-67
2023/02/06 07:57:57;;;;;;;;;;;20.30;29.80;;;;;;5017057;28;20045;-63
2023/02/06 08:00:25;;;;;;;12.00;7.63;;;20.30;29.80;;;;;;5016378;28;19922;-63
2023/02/06 08:02:52;;;;;;;12.50;7.85;;;20.40;29.70;;;;;;5018092;28;20050;-68
2023/02/06 08:09:43;;;;;;;11.57;7.03;;;20.40;29.50;;;;;;4899837;29;20060;-63
2023/02/06 08:13:13;;;;;;;;;;;20.50;29.30;;;;;;5123366;23;20192;-62
2023/02/06 08:16:14;;;;;;;11.30;7.28;;;20.50;29.20;;;;;;4992773;28;19946;-64
2023/02/06 08:18:42;;;;;;;17.40;8.25;;;20.50;29.20;;;;;;5011510;28;20109;-61
2023/02/06 08:21:11;;;;;;;16.65;8.68;;;20.60;29.20;;;;;;4997167;28;20089;-62
2023/02/06 08:23:39;;;;;;;14.60;8.50;;;20.60;29.70;;;;;;4996342;28;20376;-69
2023/02/06 08:26:12;;;;;;;12.00;7.63;;;20.60;29.40;;;;;;4997185;28;20060;-67
2023/02/06 08:28:39;;;;;;;16.67;8.40;;;20.70;29.50;;;;;;4994450;28;20086;-62
2023/02/06 08:31:18;;;;;;;19.10;8.55;;;20.70;29.40;;;;;;4986116;28;20078;-71
2023/02/06 08:34:06;;;;;;;16.45;8.32;;;20.80;29.50;;;;;;5001362;28;20050;-66
2023/02/06 08:40:22;;;;;;;16.33;8.65;;;20.90;29.50;;;;;;4997620;23;20065;-70
2023/02/06 08:42:50;;;;;;;19.02;9.13;;;20.90;29.50;;;;;;4991609;28;20049;-67
2023/02/06 08:45:17;;;;;;;19.85;9.25;;;21.00;29.50;;;;;;4992295;28;20104;-68
2023/02/06 08:47:45;;;;;;;22.80;10.10;;;21.00;29.90;;;;;;4996343;28;20106;-64
2023/02/06 08:51:16;;;;;;;28.42;10.95;;;21.10;29.50;;;;;;4995286;28;20061;-62
2023/02/06 08:54:09;;;;;;;21.45;10.07;;;21.10;29.50;;;;;;4989227;28;20057;-62
2023/02/06 08:57:06;;;;;;;25.33;10.48;;;21.10;29.40;;;;;;5005820;28;20460;-64
2023/02/06 08:59:33;;;;;;;23.05;10.52;;;21.20;29.40;;;;;;5009125;28;20069;-64
2023/02/06 09:02:00;;;;;;;24.73;10.23;;;21.20;29.40;;;;;;5008952;28;20077;-65
2023/02/06 09:04:31;;;;;;;24.65;10.27;;;21.20;29.30;;;;;;5008302;28;20053;-70
2023/02/06 09:10:20;;;;;;;22.15;10.15;;;21.30;29.30;;;;;;5000250;28;19964;-65
2023/02/06 09:12:54;;;;;;;22.17;10.57;;;21.40;29.20;;;;;;5009366;28;20069;-70
2023/02/06 09:15:21;;;;;;;24.38;10.35;;;21.40;29.40;;;;;;5003617;28;20088;-70
2023/02/06 09:17:48;;;;;;;20.55;9.85;;;21.40;29.40;;;;;;5007880;28;20038;-67
2023/02/06 09:20:15;;;;;;;27.48;10.55;;;21.50;29.50;;;;;;5006175;28;20061;-65
2023/02/06 09:22:43;;;;;;;24.65;10.45;;;21.50;29.50;;;;;;5007471;28;20069;-68
2023/02/06 09:28:36;;;;;;;20.33;9.98;;;21.50;29.50;;;;;;5004607;28;20060;-68
2023/02/06 09:31:03;;;;;;;21.15;10.98;;;21.60;29.40;;;;;;5005139;28;20046;-63
2023/02/06 09:33:30;;;;;;;22.65;9.57;;;21.60;29.30;;;;;;5002249;28;20049;-64
2023/02/06 09:36:11;;;;;;;18.90;9.18;;;21.60;29.20;;;;;;5006896;28;20089;-69
2023/02/06 09:38:43;;;;;;;20.52;9.70;;;21.60;29.20;;;;;;4966300;28;20525;-65
2023/02/06 09:45:02;;;;;;;20.88;9.95;;;21.70;29.10;;;;;;5003585;28;20099;-67
2023/02/06 09:47:33;;;;;;;21.02;9.25;;;21.70;29.10;;;;;;5007940;28;20501;-63
2023/02/06 09:54:07;;;;;;;20.70;9.25;;;21.80;29.00;;;;;;5001505;28;20071;-67
2023/02/06 09:57:00;;;;;;;17.63;8.15;;;21.80;28.70;;;;;;4997844;28;20054;-66
2023/02/06 10:04:13;;;;;;;20.27;9.30;;;21.80;28.20;;;;;;5002005;28;20064;-62
2023/02/06 10:07:11;;;;;;;17.42;8.63;;;21.80;28.10;;;;;;4987547;28;20050;-63
2023/02/06 10:10:02;;;;;;;18.17;8.25;;;21.80;27.90;;;;;;4989961;28;20046;-66
2023/02/06 10:12:37;;;;;;;15.63;8.52;;;21.80;27.70;;;;;;4991601;28;20069;-64
2023/02/06 10:19:18;;;;;;;17.33;8.18;;;21.90;27.50;;;;;;5006130;28;20204;-63
2023/02/06 10:22:35;;;;;;;19.02;8.65;;;22.00;27.60;;;;;;5009101;28;20050;-62
2023/02/06 10:25:39;;;;;;;19.17;8.50;;;22.00;27.50;;;;;;5003064;28;20056;-62
2023/02/06 10:28:21;;;;;;;13.68;7.53;;;22.00;27.60;;;;;;5011017;28;20065;-66
2023/02/06 10:35:21;;;;;;;15.13;6.97;;;22.00;27.60;;;;;;5015411;28;20064;-66
2023/02/06 10:38:58;;;;;;;16.45;8.15;;;22.00;27.60;;;;;;5006841;28;20050;-60
2023/02/06 10:41:48;;;;;;;16.15;7.60;;;22.10;27.50;;;;;;4994915;28;20554;-63
2023/02/06 10:44:29;;;;;;;15.25;7.25;;;22.10;27.50;;;;;;5001139;28;22240;-65
2023/02/06 10:46:57;;;;;;;10.55;7.00;;;22.20;27.40;;;;;;4988698;28;20054;-65
2023/02/06 10:49:46;;;;;;;10.70;6.35;;;22.20;27.30;;;;;;4986718;28;20545;-64
2023/02/06 10:52:32;;;;;;;13.10;6.68;;;22.30;27.20;;;;;;4988652;28;20375;-65
2023/02/06 10:55:28;;;;;;;12.85;6.57;;;22.20;27.00;;;;;;4987480;28;20356;-64
2023/02/06 10:58:13;;;;;;;11.55;6.25;;;22.20;26.90;;;;;;4988855;28;20053;-66
2023/02/06 11:00:42;;;;;;;10.00;5.43;;;22.20;26.80;;;;;;4973672;28;20492;-62
2023/02/06 11:03:17;;;;;;;10.73;6.57;;;22.20;26.80;;;;;;4988577;28;20054;-63
2023/02/06 11:05:46;;;;;;;11.13;6.20;;;22.30;26.80;;;;;;4988178;28;20134;-64
2023/02/06 11:08:31;;;;;;;9.82;5.45;;;22.30;27.00;;;;;;4989562;28;20050;-62
2023/02/06 11:11:24;;;;;;;7.80;5.07;;;22.30;26.90;;;;;;4975043;28;20136;-61
2023/02/06 11:14:13;;;;;;;10.35;6.32;;;22.30;26.90;;;;;;4988109;28;20849;-63
2023/02/06 11:16:42;;;;;;;9.07;5.63;;;22.30;26.80;;;;;;4988465;28;20474;-61
2023/02/06 11:19:25;;;;;;;7.53;5.43;;;22.30;26.80;;;;;;4983649;28;20042;-62
2023/02/06 11:22:09;;;;;;;7.03;5.20;;;22.30;26.70;;;;;;4989338;28;20065;-64
2023/02/06 11:24:38;;;;;;;9.70;5.85;;;22.40;26.80;;;;;;4985932;28;20046;-64
2023/02/06 11:27:19;;;;;;;6.03;4.57;;;22.40;26.70;;;;;;4987544;28;20493;-64
2023/02/06 11:29:49;;;;;;;9.93;5.15;;;22.40;26.60;;;;;;4984860;28;20046;-65
2023/02/06 11:32:39;;;;;;;6.93;4.47;;;22.40;26.60;;;;;;4988083;28;20050;-61
2023/02/06 11:35:25;;;;;;;7.30;4.97;;;22.40;26.50;;;;;;4984338;28;20053;-64
2023/02/06 11:38:04;;;;;;;9.68;5.68;;;22.40;26.60;;;;;;4983719;28;20126;-62
2023/02/06 11:40:32;;;;;;;8.52;5.38;;;22.40;26.70;;;;;;4982724;28;20394;-62
2023/02/06 11:43:38;;;;;;;7.45;5.20;;;22.40;26.60;;;;;;5002233;28;20060;-66
2023/02/06 11:46:15;;;;;;;8.20;5.32;;;22.40;26.60;;;;;;4993969;28;20088;-63
2023/02/06 11:48:47;;;;;;;8.73;5.63;;;22.40;26.60;;;;;;4996255;28;20458;-63
2023/02/06 11:51:15;;;;;;;6.65;4.68;;;22.40;26.60;;;;;;5000379;28;20133;-67
2023/02/06 11:54:01;;;;;;;6.88;4.55;;;22.50;26.70;;;;;;5002552;28;20498;-66
2023/02/06 11:56:29;;;;;;;6.22;4.93;;;22.50;26.70;;;;;;4987912;28;20144;-62
2023/02/06 11:59:21;;;;;;;8.50;4.85;;;22.50;26.70;;;;;;5002055;28;20524;-63
2023/02/06 12:01:49;;;;;;;7.25;4.40;;;22.50;26.70;;;;;;5004505;28;20404;-62
2023/02/06 12:04:24;;;;;;;7.78;4.72;;;22.50;26.70;;;;;;5003400;28;20133;-63
2023/02/06 12:06:57;;;;;;;9.27;5.15;;;22.50;26.60;;;;;;5005868;28;20092;-62
2023/02/06 12:09:26;;;;;;;9.30;5.65;;;22.50;26.60;;;;;;4997001;28;20046;-63
2023/02/06 12:12:19;;;;;;;6.40;4.65;;;22.50;26.60;;;;;;5005638;28;20493;-62
2023/02/06 12:14:56;;;;;;;8.23;4.80;;;22.50;26.60;;;;;;5004981;28;20100;-63
2023/02/06 12:17:35;;;;;;;6.65;4.70;;;22.50;26.60;;;;;;5005295;28;20488;-61
2023/02/06 12:20:12;;;;;;;6.47;4.85;;;22.50;26.50;;;;;;5002498;28;20529;-60
2023/02/06 12:22:44;;;;;;;8.05;4.80;;;22.60;26.70;;;;;;5002078;28;20054;-61
2023/02/06 12:25:31;;;;;;;7.30;5.22;;;22.60;27.10;;;;;;5002445;28;20132;-61
2023/02/06 12:28:18;;;;;;;6.68;4.72;;;22.60;27.30;;;;;;5003960;28;20049;-61
2023/02/06 12:30:57;;;;;;;7.43;5.15;;;22.60;27.50;;;;;;5002406;28;20390;-61
2023/02/06 12:33:35;;;;;;;7.50;5.03;;;22.60;27.50;;;;;;5000521;28;20053;-62
2023/02/06 12:36:16;;;;;;;8.35;5.15;;;22.60;27.60;;;;;;5001738;28;20532;-62
2023/02/06 12:39:04;;;;;;;6.82;4.93;;;22.60;27.50;;;;;;5003496;28;20136;-62
2023/02/06 12:42:12;;;;;;;7.50;5.13;;;22.60;27.50;;;;;;5004447;28;20397;-62
2023/02/06 12:44:55;;;;;;;7.35;5.00;;;22.60;27.50;;;;;;4990163;28;20564;-63
2023/02/06 12:47:30;;;;;;;6.28;4.72;;;22.60;27.40;;;;;;5004856;28;20417;-62
2023/02/06 12:50:30;;;;;;;6.78;5.00;;;22.60;27.40;;;;;;5006605;28;20056;-62
2023/02/06 12:53:17;;;;;;;8.18;5.00;;;22.70;27.40;;;;;;5004926;28;20089;-62
2023/02/06 12:56:13;;;;;;;7.57;4.88;;;22.70;27.40;;;;;;5004428;28;20172;-62
2023/02/06 12:59:10;;;;;;;7.72;4.68;;;22.70;27.40;;;;;;5003445;28;20169;-63
2023/02/06 13:01:51;;;;;;;8.80;4.70;;;22.70;27.30;;;;;;4992570;28;20054;-62
2023/02/06 13:04:23;;;;;;;6.47;4.82;;;22.70;27.30;;;;;;5002306;28;20408;-63
2023/02/06 13:07:01;;;;;;;7.53;4.65;;;22.70;27.30;;;;;;5002999;28;20100;-65
2023/02/06 13:09:34;;;;;;;6.93;4.93;;;22.70;27.20;;;;;;5004848;28;20567;-63
2023/02/06 13:12:10;;;;;;;5.40;4.25;;;22.70;27.20;;;;;;5004025;28;20096;-62
2023/02/06 13:14:53;;;;;;;5.68;4.45;;;22.70;27.20;;;;;;5006171;28;20046;-62
2023/02/06 13:17:35;;;;;;;5.78;4.22;;;22.80;27.20;;;;;;5001224;28;20049;-63
2023/02/06 13:20:11;;;;;;;6.03;4.35;;;22.80;27.20;;;;;;5005937;28;20462;-64
2023/02/06 13:22:49;;;;;;;5.80;4.45;;;22.80;27.20;;;;;;5005842;28;20049;-63
2023/02/06 13:25:49;;;;;;;6.28;4.82;;;22.80;27.10;;;;;;5001446;28;20057;-62
2023/02/06 13:28:39;;;;;;;6.65;4.53;;;22.80;27.10;;;;;;4991676;28;20050;-63
2023/02/06 13:31:22;;;;;;;8.10;4.68;;;22.80;27.00;;;;;;4991718;28;20050;-62
2023/02/06 13:33:56;;;;;;;6.22;4.18;;;22.80;26.80;;;;;;5004468;28;20118;-62
2023/02/06 13:36:40;;;;;;;10.13;5.70;;;22.80;26.70;;;;;;5000292;28;20065;-61
2023/02/06 13:39:28;;;;;;;5.45;4.38;;;22.80;26.60;;;;;;5002541;28;20052;-61
2023/02/06 13:42:00;;;;;;;7.50;5.38;;;22.80;26.70;;;;;;5001548;28;20128;-64
2023/02/06 13:44:32;;;;;;;7.43;4.47;;;22.80;26.80;;;;;;4998393;28;20049;-62
2023/02/06 13:47:23;;;;;;;8.13;4.78;;;22.80;26.80;;;;;;5003510;28;20060;-68
2023/02/06 13:50:21;;;;;;;9.02;5.45;;;22.80;26.80;;;;;;5005149;28;20076;-62
2023/02/06 13:53:28;;;;;;;11.00;4.88;;;22.80;26.90;;;;;;4991883;28;20084;-62
2023/02/06 13:56:23;;;;;;;6.60;4.88;;;22.80;26.80;;;;;;5006930;28;20049;-62
2023/02/06 13:58:54;;;;;;;5.15;4.22;;;22.80;27.00;;;;;;5005855;28;20472;-64
2023/02/06 14:01:28;;;;;;;7.13;4.90;;;22.80;27.00;;;;;;5005513;28;20065;-64
2023/02/06 14:03:57;;;;;;;6.22;4.90;;;22.80;27.10;;;;;;5009742;28;20509;-60
2023/02/06 14:06:49;;;;;;;8.95;5.10;;;22.90;27.20;;;;;;5009235;28;20096;-62
2023/02/06 14:09:49;;;;;;;6.03;4.40;;;22.90;27.30;;;;;;4996339;28;20141;-63
2023/02/06 14:12:48;;;;;;;7.10;4.78;;;22.90;27.30;;;;;;5006228;28;20100;-61
2023/02/06 14:15:34;;;;;;;5.47;4.50;;;22.90;27.20;;;;;;5007007;28;20136;-60
2023/02/06 14:18:31;;;;;;;6.72;4.90;;;22.90;27.10;;;;;;5004381;28;20042;-61
2023/02/06 14:21:17;;;;;;;7.10;4.85;;;22.90;27.10;;;;;;4992917;28;20050;-61